sensor_id;sensor_type;location;lat;lon;timestamp;P1;durP1;ratioP1;P2;durP2;ratioP2
56629;SDS011;42502;40.732;-74.254;2023-03-21T00:01:48;19.27;;;1.70;;
56629;SDS011;42502;40.732;-74.254;2023-03-21T00:03:52;23.13;;;1.20;;
56629;SDS011;42502;40.732;-74.254;2023-03-21T00:05:53;20.40;;;1.10;;
56629;SDS011;42502;40.732;-74.254;2023-03-21T00:07:54;24.10;;;1.52;;
56629;SDS011;42502;40.732;-74.254;2023-03-21T00:09:55;24.75;;;1.38;;
56629;SDS011;42502;40.732;-74.254;2023-03-21T00:11:56;25.75;;;1.65;;
56629;SDS011;42502;40.732;-74.254;2023-03-21T00:14:00;28.42;;;1.67;;
56629;SDS011;42502;40.732;-74.254;2023-03-21T00:16:11;19.48;;;1.55;;
56629;SDS011;42502;40.732;-74.254;2023-03-21T00:18:20;26.55;;;1.63;;
56629;SDS011;42502;40.732;-74.254;2023-03-21T00:20:22;20.50;;;1.75;;
56629;SDS011;42502;40.732;-74.254;2023-03-21T00:22:23;23.60;;;1.33;;
56629;SDS011;42502;40.732;-74.254;2023-03-21T00:24:24;26.95;;;1.25;;
56629;SDS011;42502;40.732;-74.254;2023-03-21T00:26:25;28.38;;;1.75;;
56629;SDS011;42502;40.732;-74.254;2023-03-21T00:28:26;23.85;;;1.50;;
56629;SDS011;42502;40.732;-74.254;2023-03-21T00:30:28;22.92;;;1.20;;
56629;SDS011;42502;40.732;-74.254;2023-03-21T00:32:28;43.30;;;2.28;;
56629;SDS011;42502;40.732;-74.254;2023-03-21T00:34:29;38.95;;;2.00;;
56629;SDS011;42502;40.732;-74.254;2023-03-21T00:36:32;26.38;;;1.60;;
56629;SDS011;42502;40.732;-74.254;2023-03-21T00:38:33;15.45;;;1.25;;
56629;SDS011;42502;40.732;-74.254;2023-03-21T00:40:35;20.02;;;1.30;;
56629;SDS011;42502;40.732;-74.254;2023-03-21T00:42:39;24.20;;;1.50;;
56629;SDS011;42502;40.732;-74.254;2023-03-21T00:44:40;20.42;;;1.58;;
56629;SDS011;42502;40.732;-74.254;2023-03-21T00:46:43;20.75;;;1.40;;
56629;SDS011;42502;40.732;-74.254;2023-03-21T00:48:44;21.58;;;1.02;;
56629;SDS011;42502;40.732;-74.254;2023-03-21T00:50:45;18.75;;;1.05;;
56629;SDS011;42502;40.732;-74.254;2023-03-21T00:52:47;16.95;;;1.23;;
56629;SDS011;42502;40.732;-74.254;2023-03-21T00:54:48;18.75;;;1.42;;
56629;SDS011;42502;40.732;-74.254;2023-03-21T00:56:49;8.88;;;0.80;;
56629;SDS011;42502;40.732;-74.254;2023-03-21T00:58:50;18.67;;;1.02;;
56629;SDS011;42502;40.732;-74.254;2023-03-21T01:00:51;14.02;;;1.45;;
56629;SDS011;42502;40.732;-74.254;2023-03-21T01:02:52;13.10;;;0.95;;
56629;SDS011;42502;40.732;-74.254;2023-03-21T01:04:56;16.17;;;1.15;;
56629;SDS011;42502;40.732;-74.254;2023-03-21T01:06:57;14.07;;;1.08;;
56629;SDS011;42502;40.732;-74.254;2023-03-21T01:09:04;13.13;;;1.30;;
56629;SDS011;42502;40.732;-74.254;2023-03-21T01:11:15;14.32;;;0.82;;
56629;SDS011;42502;40.732;-74.254;2023-03-21T01:13:18;13.85;;;0.85;;
56629;SDS011;42502;40.732;-74.254;2023-03-21T01:15:23;11.25;;;1.08;;
56629;SDS011;42502;40.732;-74.254;2023-03-21T01:17:29;14.40;;;0.90;;
56629;SDS011;42502;40.732;-74.254;2023-03-21T01:19:30;5.97;;;0.80;;
56629;SDS011;42502;40.732;-74.254;2023-03-21T01:21:32;13.95;;;1.20;;
56629;SDS011;42502;40.732;-74.254;2023-03-21T01:23:34;9.40;;;0.98;;
56629;SDS011;42502;40.732;-74.254;2023-03-21T01:25:35;6.82;;;0.60;;
56629;SDS011;42502;40.732;-74.254;2023-03-21T01:27:36;11.68;;;0.98;;
56629;SDS011;42502;40.732;-74.254;2023-03-21T01:29:37;5.05;;;0.80;;
56629;SDS011;42502;40.732;-74.254;2023-03-21T01:31:37;8.90;;;1.00;;
56629;SDS011;42502;40.732;-74.254;2023-03-21T01:33:44;12.70;;;0.80;;
56629;SDS011;42502;40.732;-74.254;2023-03-21T01:35:48;12.20;;;0.80;;
56629;SDS011;42502;40.732;-74.254;2023-03-21T01:37:49;7.70;;;0.57;;
56629;SDS011;42502;40.732;-74.254;2023-03-21T01:39:53;6.55;;;0.80;;
56629;SDS011;42502;40.732;-74.254;2023-03-21T01:41:54;8.35;;;0.57;;
56629;SDS011;42502;40.732;-74.254;2023-03-21T01:43:55;4.97;;;0.60;;
56629;SDS011;42502;40.732;-74.254;2023-03-21T01:46:38;6.50;;;0.60;;
56629;SDS011;42502;40.732;-74.254;2023-03-21T01:48:27;4.70;;;0.60;;
56629;SDS011;42502;40.732;-74.254;2023-03-21T01:50:29;7.38;;;0.70;;
56629;SDS011;42502;40.732;-74.254;2023-03-21T01:52:34;12.15;;;1.13;;
56629;SDS011;42502;40.732;-74.254;2023-03-21T01:54:37;4.85;;;0.55;;
56629;SDS011;42502;40.732;-74.254;2023-03-21T01:56:41;4.72;;;0.70;;
56629;SDS011;42502;40.732;-74.254;2023-03-21T01:58:46;4.43;;;0.73;;
56629;SDS011;42502;40.732;-74.254;2023-03-21T02:00:47;11.90;;;0.93;;
56629;SDS011;42502;40.732;-74.254;2023-03-21T02:02:50;5.13;;;0.60;;
56629;SDS011;42502;40.732;-74.254;2023-03-21T02:04:54;4.32;;;0.70;;
56629;SDS011;42502;40.732;-74.254;2023-03-21T02:06:58;3.25;;;0.60;;
56629;SDS011;42502;40.732;-74.254;2023-03-21T02:09:06;5.03;;;0.70;;
56629;SDS011;42502;40.732;-74.254;2023-03-21T02:11:12;6.88;;;0.60;;
56629;SDS011;42502;40.732;-74.254;2023-03-21T02:13:16;8.63;;;0.90;;
56629;SDS011;42502;40.732;-74.254;2023-03-21T02:15:17;32.47;;;1.55;;
56629;SDS011;42502;40.732;-74.254;2023-03-21T02:17:21;17.15;;;0.80;;
56629;SDS011;42502;40.732;-74.254;2023-03-21T02:19:59;8.38;;;0.70;;
56629;SDS011;42502;40.732;-74.254;2023-03-21T02:41:51;5.53;;;0.60;;
56629;SDS011;42502;40.732;-74.254;2023-03-21T02:44:20;5.93;;;0.60;;
56629;SDS011;42502;40.732;-74.254;2023-03-21T02:48:40;5.90;;;0.90;;
56629;SDS011;42502;40.732;-74.254;2023-03-21T02:50:53;7.45;;;0.63;;
56629;SDS011;42502;40.732;-74.254;2023-03-21T02:52:57;10.07;;;0.60;;
56629;SDS011;42502;40.732;-74.254;2023-03-21T02:55:02;3.80;;;0.60;;
56629;SDS011;42502;40.732;-74.254;2023-03-21T02:57:12;12.40;;;1.10;;
56629;SDS011;42502;40.732;-74.254;2023-03-21T02:59:16;5.72;;;0.70;;
56629;SDS011;42502;40.732;-74.254;2023-03-21T03:01:19;8.63;;;1.02;;
56629;SDS011;42502;40.732;-74.254;2023-03-21T03:03:20;6.90;;;0.63;;
56629;SDS011;42502;40.732;-74.254;2023-03-21T03:05:26;7.35;;;0.70;;
56629;SDS011;42502;40.732;-74.254;2023-03-21T03:12:12;8.15;;;0.80;;
56629;SDS011;42502;40.732;-74.254;2023-03-21T03:19:06;4.57;;;0.60;;
56629;SDS011;42502;40.732;-74.254;2023-03-21T03:28:48;4.07;;;0.52;;
56629;SDS011;42502;40.732;-74.254;2023-03-21T03:30:58;3.80;;;0.70;;
56629;SDS011;42502;40.732;-74.254;2023-03-21T03:33:01;7.13;;;0.70;;
56629;SDS011;42502;40.732;-74.254;2023-03-21T03:35:05;10.02;;;0.60;;
56629;SDS011;42502;40.732;-74.254;2023-03-21T03:37:08;4.68;;;0.63;;
56629;SDS011;42502;40.732;-74.254;2023-03-21T03:39:13;2.85;;;0.65;;
56629;SDS011;42502;40.732;-74.254;2023-03-21T03:41:25;3.38;;;0.60;;
56629;SDS011;42502;40.732;-74.254;2023-03-21T03:43:34;4.10;;;0.70;;
56629;SDS011;42502;40.732;-74.254;2023-03-21T03:45:50;3.20;;;0.60;;
56629;SDS011;42502;40.732;-74.254;2023-03-21T03:52:32;4.85;;;0.50;;
56629;SDS011;42502;40.732;-74.254;2023-03-21T03:54:46;4.03;;;0.60;;
56629;SDS011;42502;40.732;-74.254;2023-03-21T03:56:50;5.03;;;0.70;;
56629;SDS011;42502;40.732;-74.254;2023-03-21T03:58:51;3.13;;;0.60;;
56629;SDS011;42502;40.732;-74.254;2023-03-21T04:00:53;3.90;;;0.60;;
56629;SDS011;42502;40.732;-74.254;2023-03-21T04:02:55;1.23;;;0.50;;
56629;SDS011;42502;40.732;-74.254;2023-03-21T04:04:58;2.38;;;0.50;;
56629;SDS011;42502;40.732;-74.254;2023-03-21T04:07:00;3.05;;;0.65;;
56629;SDS011;42502;40.732;-74.254;2023-03-21T04:09:02;2.92;;;0.70;;
56629;SDS011;42502;40.732;-74.254;2023-03-21T04:11:09;2.90;;;0.73;;
56629;SDS011;42502;40.732;-74.254;2023-03-21T04:13:15;2.08;;;0.50;;
56629;SDS011;42502;40.732;-74.254;2023-03-21T04:15:16;2.90;;;0.52;;
56629;SDS011;42502;40.732;-74.254;2023-03-21T04:17:20;1.60;;;0.50;;
56629;SDS011;42502;40.732;-74.254;2023-03-21T04:19:21;1.25;;;0.50;;
56629;SDS011;42502;40.732;-74.254;2023-03-21T04:21:21;2.58;;;0.60;;
56629;SDS011;42502;40.732;-74.254;2023-03-21T04:23:22;1.05;;;0.50;;
56629;SDS011;42502;40.732;-74.254;2023-03-21T04:25:23;1.48;;;0.40;;
56629;SDS011;42502;40.732;-74.254;2023-03-21T04:27:27;0.93;;;0.47;;
56629;SDS011;42502;40.732;-74.254;2023-03-21T04:29:28;1.55;;;0.50;;
56629;SDS011;42502;40.732;-74.254;2023-03-21T04:31:29;0.80;;;0.40;;
56629;SDS011;42502;40.732;-74.254;2023-03-21T04:35:37;1.42;;;0.50;;
56629;SDS011;42502;40.732;-74.254;2023-03-21T04:37:38;0.85;;;0.40;;
56629;SDS011;42502;40.732;-74.254;2023-03-21T04:39:42;3.35;;;0.60;;
56629;SDS011;42502;40.732;-74.254;2023-03-21T04:41:50;0.80;;;0.50;;
56629;SDS011;42502;40.732;-74.254;2023-03-21T04:43:53;2.50;;;0.50;;
56629;SDS011;42502;40.732;-74.254;2023-03-21T04:45:55;1.85;;;0.60;;
56629;SDS011;42502;40.732;-74.254;2023-03-21T04:47:56;2.78;;;0.43;;
56629;SDS011;42502;40.732;-74.254;2023-03-21T04:49:57;2.42;;;0.50;;
56629;SDS011;42502;40.732;-74.254;2023-03-21T04:51:58;0.93;;;0.43;;
56629;SDS011;42502;40.732;-74.254;2023-03-21T04:53:59;0.55;;;0.50;;
56629;SDS011;42502;40.732;-74.254;2023-03-21T04:56:00;0.85;;;0.50;;
56629;SDS011;42502;40.732;-74.254;2023-03-21T04:58:02;1.88;;;0.50;;
56629;SDS011;42502;40.732;-74.254;2023-03-21T05:00:04;0.65;;;0.40;;
56629;SDS011;42502;40.732;-74.254;2023-03-21T05:02:10;0.65;;;0.40;;
56629;SDS011;42502;40.732;-74.254;2023-03-21T05:04:14;1.77;;;0.50;;
56629;SDS011;42502;40.732;-74.254;2023-03-21T05:06:15;1.00;;;0.52;;
56629;SDS011;42502;40.732;-74.254;2023-03-21T05:08:17;1.25;;;0.30;;
56629;SDS011;42502;40.732;-74.254;2023-03-21T05:10:20;1.73;;;0.40;;
56629;SDS011;42502;40.732;-74.254;2023-03-21T05:12:24;2.25;;;0.50;;
56629;SDS011;42502;40.732;-74.254;2023-03-21T05:14:25;0.73;;;0.40;;
56629;SDS011;42502;40.732;-74.254;2023-03-21T05:16:29;0.70;;;0.50;;
56629;SDS011;42502;40.732;-74.254;2023-03-21T05:18:29;0.73;;;0.45;;
56629;SDS011;42502;40.732;-74.254;2023-03-21T05:20:33;2.45;;;0.40;;
56629;SDS011;42502;40.732;-74.254;2023-03-21T05:22:34;1.15;;;0.50;;
56629;SDS011;42502;40.732;-74.254;2023-03-21T05:24:39;0.52;;;0.40;;
56629;SDS011;42502;40.732;-74.254;2023-03-21T05:26:41;0.50;;;0.40;;
56629;SDS011;42502;40.732;-74.254;2023-03-21T05:28:55;0.50;;;0.50;;
56629;SDS011;42502;40.732;-74.254;2023-03-21T05:30:56;1.90;;;0.50;;
56629;SDS011;42502;40.732;-74.254;2023-03-21T05:32:56;2.25;;;0.50;;
56629;SDS011;42502;40.732;-74.254;2023-03-21T05:34:57;0.82;;;0.50;;
56629;SDS011;42502;40.732;-74.254;2023-03-21T05:37:01;1.10;;;0.50;;
56629;SDS011;42502;40.732;-74.254;2023-03-21T05:39:05;1.55;;;0.50;;
56629;SDS011;42502;40.732;-74.254;2023-03-21T05:41:06;0.80;;;0.50;;
56629;SDS011;42502;40.732;-74.254;2023-03-21T05:43:09;1.58;;;0.50;;
56629;SDS011;42502;40.732;-74.254;2023-03-21T05:45:10;1.08;;;0.45;;
56629;SDS011;42502;40.732;-74.254;2023-03-21T05:47:14;1.90;;;0.50;;
56629;SDS011;42502;40.732;-74.254;2023-03-21T05:49:16;1.08;;;0.52;;
56629;SDS011;42502;40.732;-74.254;2023-03-21T05:51:17;1.63;;;0.60;;
56629;SDS011;42502;40.732;-74.254;2023-03-21T05:53:18;2.05;;;0.52;;
56629;SDS011;42502;40.732;-74.254;2023-03-21T05:55:19;0.60;;;0.40;;
56629;SDS011;42502;40.732;-74.254;2023-03-21T05:57:20;0.50;;;0.40;;
56629;SDS011;42502;40.732;-74.254;2023-03-21T05:59:21;1.23;;;0.50;;
56629;SDS011;42502;40.732;-74.254;2023-03-21T06:01:22;0.50;;;0.40;;
56629;SDS011;42502;40.732;-74.254;2023-03-21T06:03:23;1.67;;;0.52;;
56629;SDS011;42502;40.732;-74.254;2023-03-21T06:05:27;0.85;;;0.40;;
56629;SDS011;42502;40.732;-74.254;2023-03-21T06:07:28;0.50;;;0.45;;
56629;SDS011;42502;40.732;-74.254;2023-03-21T06:09:35;0.57;;;0.50;;
56629;SDS011;42502;40.732;-74.254;2023-03-21T06:11:37;0.43;;;0.40;;
56629;SDS011;42502;40.732;-74.254;2023-03-21T06:13:41;2.08;;;0.57;;
56629;SDS011;42502;40.732;-74.254;2023-03-21T06:15:42;0.70;;;0.50;;
56629;SDS011;42502;40.732;-74.254;2023-03-21T06:17:43;0.60;;;0.43;;
56629;SDS011;42502;40.732;-74.254;2023-03-21T06:19:56;0.60;;;0.40;;
56629;SDS011;42502;40.732;-74.254;2023-03-21T06:21:57;0.60;;;0.40;;
56629;SDS011;42502;40.732;-74.254;2023-03-21T06:23:58;2.08;;;0.60;;
56629;SDS011;42502;40.732;-74.254;2023-03-21T06:25:59;1.00;;;0.50;;
56629;SDS011;42502;40.732;-74.254;2023-03-21T06:28:00;1.15;;;0.50;;
56629;SDS011;42502;40.732;-74.254;2023-03-21T06:30:01;0.85;;;0.60;;
56629;SDS011;42502;40.732;-74.254;2023-03-21T06:32:03;1.33;;;0.50;;
56629;SDS011;42502;40.732;-74.254;2023-03-21T06:34:07;1.00;;;0.50;;
56629;SDS011;42502;40.732;-74.254;2023-03-21T06:36:10;1.35;;;0.70;;
56629;SDS011;42502;40.732;-74.254;2023-03-21T06:38:14;0.80;;;0.40;;
56629;SDS011;42502;40.732;-74.254;2023-03-21T06:40:15;0.82;;;0.50;;
56629;SDS011;42502;40.732;-74.254;2023-03-21T06:42:16;1.00;;;0.50;;
56629;SDS011;42502;40.732;-74.254;2023-03-21T06:44:20;0.98;;;0.60;;
56629;SDS011;42502;40.732;-74.254;2023-03-21T06:46:21;0.60;;;0.52;;
56629;SDS011;42502;40.732;-74.254;2023-03-21T06:48:25;0.60;;;0.50;;
56629;SDS011;42502;40.732;-74.254;2023-03-21T06:50:27;0.93;;;0.50;;
56629;SDS011;42502;40.732;-74.254;2023-03-21T06:52:27;2.50;;;0.60;;
56629;SDS011;42502;40.732;-74.254;2023-03-21T06:54:28;1.20;;;0.47;;
56629;SDS011;42502;40.732;-74.254;2023-03-21T06:56:30;2.30;;;0.55;;
56629;SDS011;42502;40.732;-74.254;2023-03-21T06:58:30;0.88;;;0.40;;
56629;SDS011;42502;40.732;-74.254;2023-03-21T07:00:31;0.82;;;0.50;;
56629;SDS011;42502;40.732;-74.254;2023-03-21T07:02:32;1.13;;;0.45;;
56629;SDS011;42502;40.732;-74.254;2023-03-21T07:04:33;1.60;;;0.50;;
56629;SDS011;42502;40.732;-74.254;2023-03-21T07:06:34;0.80;;;0.70;;
56629;SDS011;42502;40.732;-74.254;2023-03-21T07:08:36;0.50;;;0.50;;
56629;SDS011;42502;40.732;-74.254;2023-03-21T07:10:39;2.08;;;0.60;;
56629;SDS011;42502;40.732;-74.254;2023-03-21T07:12:43;0.95;;;0.60;;
56629;SDS011;42502;40.732;-74.254;2023-03-21T07:14:44;0.77;;;0.55;;
56629;SDS011;42502;40.732;-74.254;2023-03-21T07:16:45;0.57;;;0.40;;
56629;SDS011;42502;40.732;-74.254;2023-03-21T07:18:46;1.73;;;0.60;;
56629;SDS011;42502;40.732;-74.254;2023-03-21T07:20:47;0.60;;;0.50;;
56629;SDS011;42502;40.732;-74.254;2023-03-21T07:22:50;1.08;;;0.57;;
56629;SDS011;42502;40.732;-74.254;2023-03-21T07:24:51;1.73;;;0.60;;
56629;SDS011;42502;40.732;-74.254;2023-03-21T07:26:52;0.90;;;0.60;;
56629;SDS011;42502;40.732;-74.254;2023-03-21T07:28:53;1.20;;;0.50;;
56629;SDS011;42502;40.732;-74.254;2023-03-21T07:30:55;1.23;;;0.70;;
56629;SDS011;42502;40.732;-74.254;2023-03-21T07:32:58;1.40;;;0.50;;
56629;SDS011;42502;40.732;-74.254;2023-03-21T07:34:59;2.08;;;0.50;;
56629;SDS011;42502;40.732;-74.254;2023-03-21T07:37:00;0.70;;;0.50;;
56629;SDS011;42502;40.732;-74.254;2023-03-21T07:39:01;0.80;;;0.60;;
56629;SDS011;42502;40.732;-74.254;2023-03-21T07:41:03;0.70;;;0.60;;
56629;SDS011;42502;40.732;-74.254;2023-03-21T07:43:04;2.55;;;0.50;;
56629;SDS011;42502;40.732;-74.254;2023-03-21T07:45:05;0.52;;;0.50;;
56629;SDS011;42502;40.732;-74.254;2023-03-21T07:47:07;0.60;;;0.52;;
56629;SDS011;42502;40.732;-74.254;2023-03-21T07:49:08;0.88;;;0.50;;
56629;SDS011;42502;40.732;-74.254;2023-03-21T07:51:09;0.90;;;0.60;;
56629;SDS011;42502;40.732;-74.254;2023-03-21T07:53:10;0.65;;;0.50;;
56629;SDS011;42502;40.732;-74.254;2023-03-21T07:55:11;0.63;;;0.40;;
56629;SDS011;42502;40.732;-74.254;2023-03-21T07:57:12;0.80;;;0.50;;
56629;SDS011;42502;40.732;-74.254;2023-03-21T07:59:13;0.70;;;0.50;;
56629;SDS011;42502;40.732;-74.254;2023-03-21T08:01:14;0.80;;;0.60;;
56629;SDS011;42502;40.732;-74.254;2023-03-21T08:03:15;1.92;;;0.60;;
56629;SDS011;42502;40.732;-74.254;2023-03-21T08:05:16;0.65;;;0.50;;
56629;SDS011;42502;40.732;-74.254;2023-03-21T08:07:19;0.95;;;0.50;;
56629;SDS011;42502;40.732;-74.254;2023-03-21T08:09:20;0.73;;;0.52;;
56629;SDS011;42502;40.732;-74.254;2023-03-21T08:11:23;1.52;;;0.60;;
56629;SDS011;42502;40.732;-74.254;2023-03-21T08:13:25;0.70;;;0.52;;
56629;SDS011;42502;40.732;-74.254;2023-03-21T08:15:26;0.63;;;0.50;;
56629;SDS011;42502;40.732;-74.254;2023-03-21T08:17:27;2.40;;;0.50;;
56629;SDS011;42502;40.732;-74.254;2023-03-21T08:19:28;0.75;;;0.52;;
56629;SDS011;42502;40.732;-74.254;2023-03-21T08:21:30;0.75;;;0.50;;
56629;SDS011;42502;40.732;-74.254;2023-03-21T08:23:31;0.73;;;0.50;;
56629;SDS011;42502;40.732;-74.254;2023-03-21T08:25:40;0.90;;;0.60;;
56629;SDS011;42502;40.732;-74.254;2023-03-21T08:27:46;0.70;;;0.60;;
56629;SDS011;42502;40.732;-74.254;2023-03-21T08:29:48;0.70;;;0.63;;
56629;SDS011;42502;40.732;-74.254;2023-03-21T08:31:49;0.50;;;0.50;;
56629;SDS011;42502;40.732;-74.254;2023-03-21T08:33:50;0.70;;;0.50;;
56629;SDS011;42502;40.732;-74.254;2023-03-21T08:35:53;0.70;;;0.52;;
56629;SDS011;42502;40.732;-74.254;2023-03-21T08:37:57;1.23;;;0.57;;
56629;SDS011;42502;40.732;-74.254;2023-03-21T08:39:58;1.25;;;0.60;;
56629;SDS011;42502;40.732;-74.254;2023-03-21T08:41:59;0.88;;;0.60;;
56629;SDS011;42502;40.732;-74.254;2023-03-21T08:44:00;0.70;;;0.60;;
56629;SDS011;42502;40.732;-74.254;2023-03-21T08:46:01;1.35;;;0.60;;
56629;SDS011;42502;40.732;-74.254;2023-03-21T08:48:07;1.05;;;0.45;;
56629;SDS011;42502;40.732;-74.254;2023-03-21T08:50:08;1.10;;;0.60;;
56629;SDS011;42502;40.732;-74.254;2023-03-21T08:52:13;0.80;;;0.60;;
56629;SDS011;42502;40.732;-74.254;2023-03-21T08:54:20;0.70;;;0.50;;
56629;SDS011;42502;40.732;-74.254;2023-03-21T08:56:21;0.57;;;0.50;;
56629;SDS011;42502;40.732;-74.254;2023-03-21T08:58:22;0.88;;;0.60;;
56629;SDS011;42502;40.732;-74.254;2023-03-21T09:00:29;1.00;;;0.52;;
56629;SDS011;42502;40.732;-74.254;2023-03-21T09:02:30;1.15;;;0.63;;
56629;SDS011;42502;40.732;-74.254;2023-03-21T09:04:31;1.52;;;0.60;;
56629;SDS011;42502;40.732;-74.254;2023-03-21T09:06:32;1.35;;;0.60;;
56629;SDS011;42502;40.732;-74.254;2023-03-21T09:08:33;1.38;;;0.60;;
56629;SDS011;42502;40.732;-74.254;2023-03-21T09:10:34;0.95;;;0.60;;
56629;SDS011;42502;40.732;-74.254;2023-03-21T09:12:35;1.70;;;0.90;;
56629;SDS011;42502;40.732;-74.254;2023-03-21T09:14:36;1.00;;;0.65;;
56629;SDS011;42502;40.732;-74.254;2023-03-21T09:16:37;1.25;;;0.70;;
56629;SDS011;42502;40.732;-74.254;2023-03-21T09:18:38;0.60;;;0.55;;
56629;SDS011;42502;40.732;-74.254;2023-03-21T09:20:47;1.02;;;0.73;;
56629;SDS011;42502;40.732;-74.254;2023-03-21T09:22:52;0.90;;;0.60;;
56629;SDS011;42502;40.732;-74.254;2023-03-21T09:24:53;0.73;;;0.50;;
56629;SDS011;42502;40.732;-74.254;2023-03-21T09:26:56;1.50;;;0.60;;
56629;SDS011;42502;40.732;-74.254;2023-03-21T09:28:58;0.65;;;0.50;;
56629;SDS011;42502;40.732;-74.254;2023-03-21T09:30:59;1.88;;;0.63;;
56629;SDS011;42502;40.732;-74.254;2023-03-21T09:33:04;1.45;;;0.70;;
56629;SDS011;42502;40.732;-74.254;2023-03-21T09:35:12;0.85;;;0.60;;
56629;SDS011;42502;40.732;-74.254;2023-03-21T09:37:15;0.75;;;0.57;;
56629;SDS011;42502;40.732;-74.254;2023-03-21T09:39:16;1.02;;;0.70;;
56629;SDS011;42502;40.732;-74.254;2023-03-21T09:48:06;0.60;;;0.55;;
56629;SDS011;42502;40.732;-74.254;2023-03-21T09:50:23;1.63;;;0.60;;
56629;SDS011;42502;40.732;-74.254;2023-03-21T09:54:40;0.93;;;0.63;;
56629;SDS011;42502;40.732;-74.254;2023-03-21T09:56:43;1.52;;;0.70;;
56629;SDS011;42502;40.732;-74.254;2023-03-21T09:58:49;0.65;;;0.50;;
56629;SDS011;42502;40.732;-74.254;2023-03-21T10:03:30;1.20;;;0.60;;
56629;SDS011;42502;40.732;-74.254;2023-03-21T10:05:35;2.35;;;0.63;;
56629;SDS011;42502;40.732;-74.254;2023-03-21T10:07:41;1.38;;;0.88;;
56629;SDS011;42502;40.732;-74.254;2023-03-21T10:09:46;1.70;;;0.70;;
56629;SDS011;42502;40.732;-74.254;2023-03-21T10:11:52;1.20;;;0.65;;
56629;SDS011;42502;40.732;-74.254;2023-03-21T10:14:00;1.17;;;0.65;;
56629;SDS011;42502;40.732;-74.254;2023-03-21T10:16:16;0.60;;;0.60;;
56629;SDS011;42502;40.732;-74.254;2023-03-21T10:18:25;0.70;;;0.55;;
56629;SDS011;42502;40.732;-74.254;2023-03-21T10:20:35;0.80;;;0.70;;
56629;SDS011;42502;40.732;-74.254;2023-03-21T10:22:38;1.70;;;0.77;;
56629;SDS011;42502;40.732;-74.254;2023-03-21T10:24:39;1.30;;;0.80;;
56629;SDS011;42502;40.732;-74.254;2023-03-21T10:26:40;1.50;;;0.70;;
56629;SDS011;42502;40.732;-74.254;2023-03-21T10:28:42;1.00;;;0.60;;
56629;SDS011;42502;40.732;-74.254;2023-03-21T10:32:56;1.02;;;0.60;;
56629;SDS011;42502;40.732;-74.254;2023-03-21T10:35:01;4.45;;;0.70;;
56629;SDS011;42502;40.732;-74.254;2023-03-21T10:37:05;1.38;;;0.50;;
56629;SDS011;42502;40.732;-74.254;2023-03-21T10:39:14;1.60;;;0.70;;
56629;SDS011;42502;40.732;-74.254;2023-03-21T10:41:32;2.67;;;0.70;;
56629;SDS011;42502;40.732;-74.254;2023-03-21T10:43:35;2.28;;;0.70;;
56629;SDS011;42502;40.732;-74.254;2023-03-21T10:45:37;5.13;;;0.80;;
56629;SDS011;42502;40.732;-74.254;2023-03-21T10:47:38;4.53;;;0.73;;
56629;SDS011;42502;40.732;-74.254;2023-03-21T10:49:39;4.10;;;0.60;;
56629;SDS011;42502;40.732;-74.254;2023-03-21T10:51:40;4.35;;;0.70;;
56629;SDS011;42502;40.732;-74.254;2023-03-21T10:53:48;4.05;;;0.90;;
56629;SDS011;42502;40.732;-74.254;2023-03-21T10:56:01;3.13;;;0.80;;
56629;SDS011;42502;40.732;-74.254;2023-03-21T10:58:09;3.78;;;0.60;;
56629;SDS011;42502;40.732;-74.254;2023-03-21T11:00:21;1.50;;;0.63;;
56629;SDS011;42502;40.732;-74.254;2023-03-21T11:02:36;1.55;;;0.90;;
56629;SDS011;42502;40.732;-74.254;2023-03-21T11:04:37;3.45;;;0.68;;
56629;SDS011;42502;40.732;-74.254;2023-03-21T11:06:38;8.25;;;0.98;;
56629;SDS011;42502;40.732;-74.254;2023-03-21T11:09:16;6.72;;;0.70;;
56629;SDS011;42502;40.732;-74.254;2023-03-21T11:11:33;2.83;;;1.10;;
56629;SDS011;42502;40.732;-74.254;2023-03-21T11:13:42;5.32;;;0.90;;
56629;SDS011;42502;40.732;-74.254;2023-03-21T11:17:50;5.70;;;0.90;;
56629;SDS011;42502;40.732;-74.254;2023-03-21T11:20:00;11.05;;;0.90;;
56629;SDS011;42502;40.732;-74.254;2023-03-21T11:22:09;7.25;;;0.80;;
56629;SDS011;42502;40.732;-74.254;2023-03-21T11:24:15;9.10;;;0.70;;
56629;SDS011;42502;40.732;-74.254;2023-03-21T11:26:36;6.72;;;1.08;;
56629;SDS011;42502;40.732;-74.254;2023-03-21T11:28:38;4.20;;;0.80;;
56629;SDS011;42502;40.732;-74.254;2023-03-21T11:32:53;11.52;;;0.95;;
56629;SDS011;42502;40.732;-74.254;2023-03-21T11:34:56;15.05;;;0.90;;
56629;SDS011;42502;40.732;-74.254;2023-03-21T11:37:02;8.25;;;1.02;;
56629;SDS011;42502;40.732;-74.254;2023-03-21T11:41:11;16.80;;;1.48;;
56629;SDS011;42502;40.732;-74.254;2023-03-21T11:43:34;14.43;;;1.10;;
56629;SDS011;42502;40.732;-74.254;2023-03-21T11:45:38;15.27;;;1.23;;
56629;SDS011;42502;40.732;-74.254;2023-03-21T11:48:00;16.27;;;1.08;;
56629;SDS011;42502;40.732;-74.254;2023-03-21T11:50:17;15.13;;;1.77;;
56629;SDS011;42502;40.732;-74.254;2023-03-21T11:52:40;13.70;;;1.20;;
56629;SDS011;42502;40.732;-74.254;2023-03-21T11:57:08;15.57;;;1.30;;
56629;SDS011;42502;40.732;-74.254;2023-03-21T12:06:33;18.98;;;1.52;;
56629;SDS011;42502;40.732;-74.254;2023-03-21T12:11:33;15.90;;;1.90;;
56629;SDS011;42502;40.732;-74.254;2023-03-21T12:13:55;22.30;;;1.60;;
56629;SDS011;42502;40.732;-74.254;2023-03-21T12:23:19;36.20;;;2.30;;
56629;SDS011;42502;40.732;-74.254;2023-03-21T12:25:32;32.88;;;2.03;;
56629;SDS011;42502;40.732;-74.254;2023-03-21T12:27:58;17.17;;;2.10;;
56629;SDS011;42502;40.732;-74.254;2023-03-21T12:39:51;17.95;;;2.38;;
56629;SDS011;42502;40.732;-74.254;2023-03-21T12:44:21;21.75;;;2.47;;
56629;SDS011;42502;40.732;-74.254;2023-03-21T12:48:32;20.30;;;2.58;;
56629;SDS011;42502;40.732;-74.254;2023-03-21T12:50:42;30.58;;;2.65;;
56629;SDS011;42502;40.732;-74.254;2023-03-21T12:52:46;19.85;;;1.85;;
56629;SDS011;42502;40.732;-74.254;2023-03-21T12:57:04;16.10;;;2.08;;
56629;SDS011;42502;40.732;-74.254;2023-03-21T12:59:19;13.57;;;1.65;;
56629;SDS011;42502;40.732;-74.254;2023-03-21T13:01:28;21.23;;;1.80;;
56629;SDS011;42502;40.732;-74.254;2023-03-21T13:03:39;14.27;;;1.70;;
56629;SDS011;42502;40.732;-74.254;2023-03-21T13:05:45;14.93;;;1.92;;
56629;SDS011;42502;40.732;-74.254;2023-03-21T13:07:58;10.05;;;1.63;;
56629;SDS011;42502;40.732;-74.254;2023-03-21T13:10:11;18.42;;;1.80;;
56629;SDS011;42502;40.732;-74.254;2023-03-21T13:14:42;11.50;;;1.50;;
56629;SDS011;42502;40.732;-74.254;2023-03-21T13:17:03;8.18;;;1.27;;
56629;SDS011;42502;40.732;-74.254;2023-03-21T13:19:35;19.38;;;1.67;;
56629;SDS011;42502;40.732;-74.254;2023-03-21T13:24:16;14.90;;;1.55;;
56629;SDS011;42502;40.732;-74.254;2023-03-21T13:26:37;19.35;;;1.63;;
56629;SDS011;42502;40.732;-74.254;2023-03-21T13:28:40;18.58;;;1.90;;
56629;SDS011;42502;40.732;-74.254;2023-03-21T13:30:41;29.13;;;2.03;;
56629;SDS011;42502;40.732;-74.254;2023-03-21T13:32:43;20.45;;;1.58;;
56629;SDS011;42502;40.732;-74.254;2023-03-21T13:34:48;20.88;;;1.77;;
56629;SDS011;42502;40.732;-74.254;2023-03-21T13:36:54;35.25;;;1.70;;
56629;SDS011;42502;40.732;-74.254;2023-03-21T13:39:00;23.10;;;2.45;;
56629;SDS011;42502;40.732;-74.254;2023-03-21T13:43:31;27.75;;;1.73;;
56629;SDS011;42502;40.732;-74.254;2023-03-21T13:45:45;25.65;;;1.80;;
56629;SDS011;42502;40.732;-74.254;2023-03-21T13:52:26;22.52;;;2.05;;
56629;SDS011;42502;40.732;-74.254;2023-03-21T13:56:54;21.92;;;1.45;;
56629;SDS011;42502;40.732;-74.254;2023-03-21T13:58:59;20.85;;;1.60;;
56629;SDS011;42502;40.732;-74.254;2023-03-21T14:03:29;33.85;;;1.83;;
56629;SDS011;42502;40.732;-74.254;2023-03-21T14:05:34;10.75;;;1.17;;